Terminal Aerodrome Forecast
Issued by NWS Des Moines, IA

Home | Current Version | Previous Version | Text Only | Print | Product List | Glossary On
Versions: 1 2 3 4 5 6 7 8 9 10 11 12 13 14 15 16 17 18 19 20 21
000
FTUS43 KDMX 041739
TAFALO
TAF
KALO 041739Z 0418/0518 18008KT 2SM -SN OVC007
     FM041900 21006KT 2SM BR OVC003
     FM042200 23007KT P6SM BKN012
     FM050300 VRB03KT 3SM BR SCT007
     FM050900 17005KT 1SM BR SCT002 BKN025
     FM051500 16008KT P6SM BKN030=

USA.gov is the U.S. government's official web portal to all federal, state and local government web resources and services.